createdAt,value
2016-07-29T18:43:49.036Z,22.23
2016-07-29T18:44:19.348Z,22.23
2016-07-29T18:45:19.374Z,22.13
2016-07-29T18:46:19.395Z,22.13
2016-07-29T18:47:19.415Z,22.1
2016-07-29T18:48:19.438Z,22.1
2016-07-29T18:49:19.467Z,22.11
2016-07-29T18:50:19.480Z,22.1
2016-07-29T18:51:19.500Z,21.98
2016-07-29T18:52:19.534Z,22.02
2016-07-29T18:53:19.542Z,21.91
2016-07-29T18:54:19.573Z,21.82
2016-07-29T18:55:19.587Z,21.88
2016-07-29T18:56:19.607Z,21.79
2016-07-29T18:57:19.639Z,21.79
2016-07-29T18:58:19.656Z,21.79
2016-07-29T18:59:19.683Z,21.77
2016-07-29T19:00:19.700Z,21.73
2016-07-29T19:01:19.718Z,21.69
2016-07-29T19:02:19.742Z,21.69
2016-07-29T19:03:19.773Z,21.67
2016-07-29T19:04:19.793Z,21.6
2016-07-29T19:05:19.806Z,21.61
2016-07-29T19:06:19.829Z,21.7
2016-07-29T19:07:19.860Z,21.55
2016-07-29T19:08:20.593Z,21.55
2016-07-29T19:09:19.901Z,21.58
2016-07-29T19:10:19.914Z,21.55
2016-07-29T19:11:19.935Z,21.48
2016-07-29T19:12:19.960Z,21.48
2016-07-29T19:13:19.985Z,21.51
2016-07-29T19:14:19.998Z,21.4
2016-07-29T19:15:20.019Z,21.39
2016-07-29T19:16:20.046Z,21.39
2016-07-29T19:17:20.069Z,21.35
2016-07-29T19:18:20.090Z,21.29
2016-07-29T19:19:20.107Z,21.29
2016-07-29T19:20:20.136Z,21.27
2016-07-29T19:21:20.145Z,21.25
2016-07-29T19:22:20.174Z,21.24
2016-07-29T19:23:20.198Z,21.22
2016-07-29T19:24:20.217Z,21.15
2016-07-29T19:25:20.234Z,21.17
2016-07-29T19:26:20.253Z,21.21
2016-07-29T19:27:20.287Z,21.15
2016-07-29T19:28:20.304Z,21.24
2016-07-29T19:29:20.319Z,21.12
2016-07-29T19:30:20.351Z,21.14
2016-07-29T19:31:20.367Z,21.15
2016-07-29T19:32:20.383Z,21.2
2016-07-29T19:33:20.409Z,21.17
2016-07-29T19:34:20.435Z,21.14
2016-07-29T19:35:20.446Z,21.18
2016-07-29T19:36:20.472Z,21.17
2016-07-29T19:37:20.499Z,21.15
2016-07-29T19:38:20.516Z,21.17
2016-07-29T19:39:20.525Z,21.15
2016-07-29T19:40:20.558Z,21.18
2016-07-29T19:41:20.579Z,21.14
2016-07-29T19:42:20.604Z,21.21
2016-07-29T19:43:20.624Z,21.14
2016-07-29T19:44:20.649Z,21.14
2016-07-29T19:45:20.666Z,21.12
2016-07-29T19:46:20.684Z,21.12
2016-07-29T19:47:20.707Z,21.11
2016-07-29T19:48:20.737Z,20.99
2016-07-29T19:49:20.742Z,21
2016-07-29T19:50:20.773Z,21.03
2016-07-29T19:52:20.822Z,21.05
2016-07-29T19:53:20.830Z,21.02
2016-07-29T19:54:20.855Z,21
2016-07-29T19:55:20.877Z,21.05
2016-07-29T19:56:20.904Z,21.06
2016-07-29T19:57:20.918Z,21.02
2016-07-29T19:58:20.942Z,20.97
2016-07-29T19:59:20.957Z,21.07
2016-07-29T20:00:20.985Z,21.11
2016-07-29T20:01:21.006Z,21.09
2016-07-29T20:02:21.031Z,21
2016-07-29T20:03:21.048Z,21.06
2016-07-29T20:04:21.069Z,21.02
2016-07-29T20:05:21.087Z,21.03
2016-07-29T20:07:21.140Z,21.03
2016-07-29T20:08:21.155Z,21.02
2016-07-29T20:09:21.170Z,21
2016-07-29T20:10:21.202Z,20.93
2016-07-29T20:11:21.215Z,21.03
2016-07-29T20:12:21.244Z,20.95
2016-07-29T20:13:21.261Z,21.06
2016-07-29T20:14:21.284Z,21.05
2016-07-29T20:15:21.304Z,21.09
2016-07-29T20:16:21.324Z,21.05
2016-07-29T20:17:21.343Z,21.03
2016-07-29T20:18:21.370Z,21.05
2016-07-29T20:19:21.391Z,21.02
2016-07-29T20:20:21.415Z,21
2016-07-29T20:22:21.455Z,20.97
2016-07-29T20:23:21.474Z,21.03
2016-07-29T20:24:21.499Z,21.02
2016-07-29T20:25:21.512Z,21.02
2016-07-29T20:26:21.538Z,21.05
2016-07-29T20:27:21.556Z,20.96
2016-07-29T20:28:21.584Z,20.99
2016-07-29T20:29:21.597Z,21.03
2016-07-29T20:30:21.620Z,20.9
2016-07-29T20:31:21.647Z,20.87
2016-07-29T20:32:21.668Z,20.87
2016-07-29T20:33:21.684Z,20.85
2016-07-29T20:34:21.710Z,20.85
2016-07-29T20:35:21.735Z,20.87
2016-07-29T20:37:21.774Z,20.72
2016-07-29T20:38:21.792Z,20.7
2016-07-29T20:39:22.543Z,20.81
2016-07-29T20:40:21.841Z,20.82
2016-07-29T20:41:21.847Z,20.72
2016-07-29T20:42:21.875Z,20.74
2016-07-29T20:43:21.894Z,20.74
2016-07-29T20:44:21.924Z,20.7
2016-07-29T20:45:21.930Z,20.69
2016-07-29T20:46:21.956Z,20.66
2016-07-29T20:47:21.967Z,20.66
2016-07-29T20:48:21.998Z,20.63
2016-07-29T20:49:22.016Z,20.59
2016-07-29T20:50:22.038Z,20.65
2016-07-29T20:52:22.084Z,20.6
2016-07-29T20:53:22.096Z,20.63
2016-07-29T20:54:22.132Z,20.6
2016-07-29T20:55:22.145Z,20.56
2016-07-29T20:56:22.169Z,20.5
2016-07-29T20:57:22.183Z,20.58
2016-07-29T20:58:22.218Z,20.55
2016-07-29T20:59:22.231Z,20.55
2016-07-29T21:00:22.257Z,20.59
2016-07-29T21:01:22.271Z,20.58
2016-07-29T21:02:22.300Z,20.47
2016-07-29T21:03:22.316Z,20.44
2016-07-29T21:04:22.337Z,20.41
2016-07-29T21:05:22.360Z,20.36
2016-07-29T21:07:22.401Z,20.39
2016-07-29T21:08:22.420Z,20.39
2016-07-29T21:09:22.438Z,20.39
2016-07-29T21:10:22.470Z,20.48
2016-07-29T21:11:22.484Z,20.39
2016-07-29T21:12:22.501Z,20.25
2016-07-29T21:13:22.525Z,20.41
2016-07-29T21:14:22.550Z,20.4
2016-07-29T21:15:22.562Z,20.4
2016-07-29T21:16:22.604Z,20.37
2016-07-29T21:17:22.613Z,20.36
2016-07-29T21:18:22.632Z,20.39
2016-07-29T21:19:22.651Z,20.36
2016-07-29T21:20:22.675Z,20.32
2016-07-29T21:21:22.696Z,20.28
2016-07-29T21:22:22.716Z,20.32
2016-07-29T21:23:22.739Z,20.31
2016-07-29T21:24:22.754Z,20.24
2016-07-29T21:25:22.783Z,20.21
2016-07-29T21:26:22.798Z,20.32
2016-07-29T21:27:22.818Z,20.36
2016-07-29T21:28:22.841Z,20.34
2016-07-29T21:29:22.871Z,20.29
2016-07-29T21:30:22.894Z,20.31
2016-07-29T21:31:22.901Z,20.37
2016-07-29T21:32:22.927Z,20.34
2016-07-29T21:33:22.941Z,20.39
2016-07-29T21:34:22.970Z,20.34
2016-07-29T21:35:22.980Z,20.43
2016-07-29T21:36:23.008Z,20.5
2016-07-29T21:37:23.030Z,20.37
2016-07-29T21:38:23.046Z,20.39
2016-07-29T21:39:23.063Z,20.39
2016-07-29T21:40:23.103Z,20.41
2016-07-29T21:41:23.117Z,20.43
2016-07-29T21:42:23.135Z,20.37
2016-07-29T21:43:23.151Z,20.41
2016-07-29T21:44:23.183Z,20.4
2016-07-29T21:45:23.187Z,20.43
2016-07-29T21:46:23.224Z,20.41
2016-07-29T21:47:23.241Z,20.37
2016-07-29T21:48:23.266Z,20.37
2016-07-29T21:49:23.271Z,20.4
2016-07-29T21:50:23.301Z,20.4
2016-07-29T21:51:23.329Z,20.39
2016-07-29T21:52:23.345Z,20.44
2016-07-29T21:53:23.359Z,20.39
2016-07-29T21:54:23.380Z,20.41
2016-07-29T21:55:23.410Z,20.41
2016-07-29T21:56:23.426Z,20.36
2016-07-29T21:57:23.442Z,20.39
2016-07-29T21:58:23.469Z,20.4
2016-07-29T21:59:23.488Z,20.43
2016-07-29T22:00:23.508Z,20.4
2016-07-29T22:01:23.531Z,20.34
2016-07-29T22:02:23.546Z,20.36
2016-07-29T22:03:23.566Z,20.32
2016-07-29T22:04:23.596Z,20.34
2016-07-29T22:05:23.609Z,20.34
2016-07-29T22:06:23.644Z,20.4
2016-07-29T22:07:23.653Z,20.32
2016-07-29T22:08:23.677Z,20.39
2016-07-29T22:09:23.696Z,20.37
2016-07-29T22:10:23.709Z,20.37
2016-07-29T22:11:23.742Z,20.31
2016-07-29T22:12:23.761Z,20.36
2016-07-29T22:13:23.783Z,20.28
2016-07-29T22:14:23.800Z,20.26
2016-07-29T22:15:23.825Z,20.18
2016-07-29T22:16:23.843Z,20.18
2016-07-29T22:17:23.871Z,20.28
2016-07-29T22:18:23.890Z,20.21
2016-07-29T22:19:23.907Z,20.31
2016-07-29T22:20:23.922Z,20.19
2016-07-29T22:21:23.940Z,20.22
2016-07-29T22:22:23.972Z,20.21
2016-07-29T22:23:23.987Z,20.24
2016-07-29T22:24:24.013Z,20.18
2016-07-29T22:25:24.022Z,20.18
2016-07-29T22:26:24.043Z,20.21
2016-07-29T22:27:24.076Z,20.18
2016-07-29T22:28:24.087Z,20.22
2016-07-29T22:29:24.121Z,20.16
2016-07-29T22:30:24.132Z,20.16
2016-07-29T22:31:24.158Z,20.18
2016-07-29T22:32:24.184Z,20.1
2016-07-29T22:33:24.200Z,20.13
2016-07-29T22:34:24.220Z,20.11
2016-07-29T22:35:24.240Z,19.99
2016-07-29T22:36:24.267Z,19.95
2016-07-29T22:37:24.273Z,20
2016-07-29T22:38:24.296Z,19.99
2016-07-29T22:39:24.318Z,19.91
2016-07-29T22:40:24.350Z,19.88
2016-07-29T22:41:24.359Z,19.85
2016-07-29T22:42:24.388Z,19.91
2016-07-29T22:43:24.403Z,19.92
2016-07-29T22:44:24.434Z,19.86
2016-07-29T22:45:24.449Z,19.77
2016-07-29T22:46:24.465Z,19.85
2016-07-29T22:47:24.489Z,19.82
2016-07-29T22:48:24.511Z,19.84
2016-07-29T22:49:24.540Z,19.69
2016-07-29T22:50:24.548Z,19.74
2016-07-29T22:51:24.565Z,19.79
2016-07-29T22:52:24.595Z,19.85
2016-07-29T22:53:24.610Z,19.88
2016-07-29T22:54:24.637Z,19.91
2016-07-29T22:55:24.654Z,19.89
2016-07-29T22:56:24.670Z,19.91
2016-07-29T22:57:24.702Z,19.85
2016-07-29T22:58:24.719Z,19.84
2016-07-29T22:59:24.735Z,19.86
2016-07-29T23:00:24.760Z,19.88
2016-07-29T23:01:24.781Z,19.84
2016-07-29T23:02:24.790Z,19.77
2016-07-29T23:03:24.820Z,19.79
2016-07-29T23:04:24.849Z,19.79
2016-07-29T23:05:24.867Z,19.81
2016-07-29T23:06:24.878Z,19.76
2016-07-29T23:07:24.902Z,19.76
2016-07-29T23:08:24.929Z,19.76
2016-07-29T23:09:24.949Z,19.71
2016-07-29T23:10:24.963Z,19.69
2016-07-29T23:11:24.989Z,19.73
2016-07-29T23:12:25.007Z,19.7
2016-07-29T23:13:25.021Z,19.71
2016-07-29T23:14:25.041Z,19.67
2016-07-29T23:15:25.075Z,19.64
2016-07-29T23:16:25.091Z,19.64
2016-07-29T23:17:25.116Z,19.66
2016-07-29T23:18:25.126Z,19.58
2016-07-29T23:19:25.152Z,19.63
2016-07-29T23:20:25.171Z,19.56
2016-07-29T23:21:25.195Z,19.52
2016-07-29T23:22:25.205Z,19.51
2016-07-29T23:23:25.236Z,19.51
2016-07-29T23:24:25.256Z,19.55
2016-07-29T23:25:25.267Z,19.47
2016-07-29T23:26:25.295Z,19.47
2016-07-29T23:27:25.311Z,19.34
2016-07-29T23:28:25.351Z,19.33
2016-07-29T23:29:25.355Z,19.41
2016-07-29T23:30:25.381Z,19.31
2016-07-29T23:31:25.390Z,19.27
2016-07-29T23:32:25.417Z,19.31
2016-07-29T23:33:25.440Z,19.26
2016-07-29T23:34:25.460Z,19.3
2016-07-29T23:35:25.486Z,19.12
2016-07-29T23:36:25.503Z,19.18
2016-07-29T23:37:25.523Z,19.16
2016-07-29T23:38:25.547Z,19.12
2016-07-29T23:39:25.555Z,19.18
2016-07-29T23:40:25.589Z,19
2016-07-29T23:41:25.608Z,19.07
2016-07-29T23:42:25.627Z,19
2016-07-29T23:43:25.646Z,19.09
2016-07-29T23:44:25.671Z,19.07
2016-07-29T23:45:25.694Z,19.04
2016-07-29T23:46:25.712Z,19.02
2016-07-29T23:47:25.728Z,19.02
2016-07-29T23:48:25.752Z,19.04
2016-07-29T23:49:25.785Z,18.99
2016-07-29T23:50:25.796Z,18.98
2016-07-29T23:51:25.808Z,19.14
2016-07-29T23:52:25.834Z,19.07
2016-07-29T23:53:25.854Z,19.07
2016-07-29T23:54:25.871Z,19
2016-07-29T23:55:25.893Z,18.99
2016-07-29T23:56:25.913Z,19.11
2016-07-29T23:57:25.939Z,18.96
2016-07-29T23:58:25.949Z,19.07
2016-07-29T23:59:25.977Z,19.09
